Time,TemperatureF,DewpointF,PressureIn,WindDirection,WindDirectionDegrees,WindSpeedMPH,WindSpeedGustMPH,Humidity,HourlyPrecipIn,Conditions,Clouds,dailyrainin,SolarRadiationWatts/m^2,SoftwareType,DateUTC
2013-06-06 00:22:00,60.0,59.0,-100.00,NNW,338,3.0,4.0,95,0.00,,,0.00,0.000000,,2013-06-06 10:22:00,
2013-06-06 00:33:00,60.0,59.0,-100.00,NNW,338,3.0,4.0,95,0.00,,,0.00,0.000000,,2013-06-06 10:33:00,
2013-06-06 00:42:00,60.0,59.0,-100.00,NNW,338,3.0,4.0,95,0.00,,,0.00,0.000000,,2013-06-06 10:42:00,
2013-06-06 00:52:00,60.0,59.0,-100.00,NNW,338,3.0,4.0,95,0.00,,,0.00,0.000000,,2013-06-06 10:52:00,
2013-06-06 01:22:00,56.0,46.0,-100.00,ESE,121,10.0,15.0,70,0.00,,,-99.99,0.000000,,2013-06-06 11:22:00,
2013-06-06 01:32:00,56.0,46.0,-100.00,ESE,121,10.0,15.0,70,0.00,,,-99.99,0.000000,,2013-06-06 11:32:00,
2013-06-06 01:42:00,56.0,46.0,-100.00,ESE,121,10.0,15.0,70,0.00,,,-99.99,0.000000,,2013-06-06 11:42:00,
2013-06-06 01:52:00,56.0,46.0,-100.00,ESE,121,10.0,15.0,70,0.00,,,-99.99,0.000000,,2013-06-06 11:52:00,
2013-06-06 02:22:00,53.0,46.0,-100.00,ESE,108,11.0,14.0,77,0.00,,,0.00,0.000000,,2013-06-06 12:22:00,
2013-06-06 02:32:00,53.0,46.0,-100.00,ESE,108,11.0,14.0,77,0.00,,,0.00,0.000000,,2013-06-06 12:32:00,
2013-06-06 02:42:00,53.0,46.0,-100.00,ESE,108,11.0,14.0,77,0.00,,,0.00,0.000000,,2013-06-06 12:42:00,
2013-06-06 02:52:00,53.0,46.0,-100.00,ESE,108,11.0,14.0,77,0.00,,,0.00,0.000000,,2013-06-06 12:52:00,
2013-06-06 03:22:00,54.0,45.0,-100.00,ESE,107,12.0,19.0,71,0.00,,,0.00,0.000000,,2013-06-06 13:22:00,
2013-06-06 03:32:00,54.0,45.0,-100.00,ESE,107,12.0,19.0,71,0.00,,,0.00,0.000000,,2013-06-06 13:32:00,
2013-06-06 03:42:00,54.0,45.0,-100.00,ESE,107,12.0,19.0,71,0.00,,,0.00,0.000000,,2013-06-06 13:42:00,
2013-06-06 03:52:00,54.0,45.0,-100.00,ESE,107,12.0,19.0,71,0.00,,,0.00,0.000000,,2013-06-06 13:52:00,
2013-06-06 04:22:00,51.0,43.0,-100.00,SE,126,10.0,17.0,74,0.00,,,0.00,0.000000,,2013-06-06 14:22:00,
2013-06-06 04:32:00,51.0,43.0,-100.00,SE,126,10.0,17.0,74,0.00,,,0.00,0.000000,,2013-06-06 14:32:00,
2013-06-06 04:42:00,51.0,43.0,-100.00,SE,126,10.0,17.0,74,0.00,,,0.00,0.000000,,2013-06-06 14:42:00,
2013-06-06 04:52:00,51.0,43.0,-100.00,SE,126,10.0,17.0,74,0.00,,,0.00,0.000000,,2013-06-06 14:52:00,
2013-06-06 05:22:00,54.0,45.0,-100.00,ESE,116,15.0,21.0,71,0.00,,,0.00,0.000000,,2013-06-06 15:22:00,
2013-06-06 05:33:00,54.0,45.0,-100.00,ESE,116,15.0,21.0,71,0.00,,,0.00,0.000000,,2013-06-06 15:33:00,
2013-06-06 05:43:00,54.0,45.0,-100.00,ESE,116,15.0,21.0,71,0.00,,,0.00,0.000000,,2013-06-06 15:43:00,
2013-06-06 05:52:00,54.0,45.0,-100.00,ESE,116,15.0,21.0,71,0.00,,,0.00,0.000000,,2013-06-06 15:52:00,
2013-06-06 06:23:00,56.0,46.0,-100.00,ESE,114,20.0,31.0,68,0.00,,,0.00,1.000000,,2013-06-06 16:23:00,
2013-06-06 06:33:00,56.0,46.0,-100.00,ESE,114,20.0,31.0,68,0.00,,,0.00,1.000000,,2013-06-06 16:33:00,
2013-06-06 06:43:00,56.0,46.0,-100.00,ESE,114,20.0,31.0,68,0.00,,,0.00,1.000000,,2013-06-06 16:43:00,
2013-06-06 06:52:00,56.0,46.0,-100.00,ESE,114,20.0,31.0,68,0.00,,,0.00,1.000000,,2013-06-06 16:52:00,
2013-06-06 07:22:00,63.0,46.0,-100.00,ESE,115,14.0,33.0,54,0.00,,,0.00,115.000000,,2013-06-06 17:22:00,
2013-06-06 07:32:00,63.0,46.0,-100.00,ESE,115,14.0,33.0,54,0.00,,,0.00,115.000000,,2013-06-06 17:32:00,
2013-06-06 07:42:00,63.0,46.0,-100.00,ESE,115,14.0,33.0,54,0.00,,,0.00,115.000000,,2013-06-06 17:42:00,
2013-06-06 07:52:00,63.0,46.0,-100.00,ESE,115,14.0,33.0,54,0.00,,,0.00,115.000000,,2013-06-06 17:52:00,
2013-06-06 08:22:00,69.0,51.0,-100.00,SE,131,3.0,17.0,53,0.00,,,0.00,380.000000,,2013-06-06 18:22:00,
2013-06-06 08:33:00,69.0,51.0,-100.00,SE,131,3.0,17.0,53,0.00,,,0.00,380.000000,,2013-06-06 18:33:00,
2013-06-06 08:43:00,69.0,51.0,-100.00,SE,131,3.0,17.0,53,0.00,,,0.00,380.000000,,2013-06-06 18:43:00,
2013-06-06 08:52:00,69.0,51.0,-100.00,SE,131,3.0,17.0,53,0.00,,,0.00,380.000000,,2013-06-06 18:52:00,
2013-06-06 09:23:00,66.0,56.0,-100.00,WNW,287,12.0,19.0,69,0.00,,,0.00,644.000000,,2013-06-06 19:23:00,
2013-06-06 09:33:00,66.0,56.0,-100.00,WNW,287,12.0,19.0,69,0.00,,,0.00,644.000000,,2013-06-06 19:33:00,
2013-06-06 09:42:00,66.0,56.0,-100.00,WNW,287,12.0,19.0,69,0.00,,,0.00,644.000000,,2013-06-06 19:42:00,
2013-06-06 09:52:00,66.0,56.0,-100.00,WNW,287,12.0,19.0,69,0.00,,,0.00,644.000000,,2013-06-06 19:52:00,
2013-06-06 10:22:00,68.0,55.0,-100.00,WNW,300,8.0,18.0,63,0.00,,,0.00,647.000000,,2013-06-06 20:22:00,
2013-06-06 10:33:00,68.0,55.0,-100.00,WNW,300,8.0,18.0,63,0.00,,,0.00,647.000000,,2013-06-06 20:33:00,
2013-06-06 10:42:00,68.0,55.0,-100.00,WNW,300,8.0,18.0,63,0.00,,,0.00,647.000000,,2013-06-06 20:42:00,
2013-06-06 10:52:00,68.0,55.0,-100.00,WNW,300,8.0,18.0,63,0.00,,,0.00,647.000000,,2013-06-06 20:52:00,
2013-06-06 11:22:00,70.0,55.0,-100.00,WNW,290,11.0,22.0,60,0.00,,,0.00,1010.000000,,2013-06-06 21:22:00,
2013-06-06 11:33:00,70.0,55.0,-100.00,WNW,290,11.0,22.0,60,0.00,,,0.00,1010.000000,,2013-06-06 21:33:00,
2013-06-06 11:43:00,70.0,55.0,-100.00,WNW,290,11.0,22.0,60,0.00,,,0.00,1010.000000,,2013-06-06 21:43:00,
2013-06-06 11:53:00,70.0,55.0,-100.00,WNW,290,11.0,22.0,60,0.00,,,0.00,1010.000000,,2013-06-06 21:53:00,
2013-06-06 12:23:00,71.0,57.0,-100.00,WNW,284,14.0,22.0,61,0.00,,,0.00,850.000000,,2013-06-06 22:23:00,
2013-06-06 12:33:00,71.0,57.0,-100.00,WNW,284,14.0,22.0,61,0.00,,,0.00,850.000000,,2013-06-06 22:33:00,
2013-06-06 12:43:00,71.0,57.0,-100.00,WNW,284,14.0,22.0,61,0.00,,,0.00,850.000000,,2013-06-06 22:43:00,
2013-06-06 12:52:00,71.0,57.0,-100.00,WNW,284,14.0,22.0,61,0.00,,,0.00,850.000000,,2013-06-06 22:52:00,
2013-06-06 13:22:00,70.0,58.0,-100.00,NW,323,9.0,28.0,65,0.00,,,0.00,629.000000,,2013-06-06 23:22:00,
2013-06-06 13:33:00,70.0,58.0,-100.00,NW,323,9.0,28.0,65,0.00,,,0.00,629.000000,,2013-06-06 23:33:00,
2013-06-06 13:42:00,70.0,58.0,-100.00,NW,323,9.0,28.0,65,0.00,,,0.00,629.000000,,2013-06-06 23:42:00,
2013-06-06 13:52:00,70.0,58.0,-100.00,NW,323,9.0,28.0,65,0.00,,,0.00,629.000000,,2013-06-06 23:52:00,
2013-06-06 14:22:00,70.0,58.0,-100.00,NW,323,10.0,26.0,66,0.00,,,0.00,773.000000,,2013-06-07 00:22:00,
2013-06-06 14:32:00,70.0,58.0,-100.00,NW,323,10.0,26.0,66,0.00,,,0.00,773.000000,,2013-06-07 00:32:00,
2013-06-06 14:42:00,70.0,58.0,-100.00,NW,323,10.0,26.0,66,0.00,,,0.00,773.000000,,2013-06-07 00:42:00,
2013-06-06 14:52:00,70.0,58.0,-100.00,NW,323,10.0,26.0,66,0.00,,,0.00,773.000000,,2013-06-07 00:52:00,
2013-06-06 15:22:00,69.0,58.0,-100.00,NW,305,12.0,20.0,69,0.00,,,0.00,704.000000,,2013-06-07 01:22:00,
2013-06-06 15:32:00,69.0,58.0,-100.00,NW,305,12.0,20.0,69,0.00,,,0.00,704.000000,,2013-06-07 01:32:00,
2013-06-06 15:42:00,69.0,58.0,-100.00,NW,305,12.0,20.0,69,0.00,,,0.00,704.000000,,2013-06-07 01:42:00,
2013-06-06 15:52:00,69.0,58.0,-100.00,NW,305,12.0,20.0,69,0.00,,,0.00,704.000000,,2013-06-07 01:52:00,
2013-06-06 16:22:00,69.0,60.0,-100.00,WNW,289,12.0,20.0,74,0.00,,,0.00,595.000000,,2013-06-07 02:22:00,
2013-06-06 16:32:00,69.0,60.0,-100.00,WNW,289,12.0,20.0,74,0.00,,,0.00,595.000000,,2013-06-07 02:32:00,
2013-06-06 16:42:00,69.0,60.0,-100.00,WNW,289,12.0,20.0,74,0.00,,,0.00,595.000000,,2013-06-07 02:42:00,
2013-06-06 16:52:00,69.0,60.0,-100.00,WNW,289,12.0,20.0,74,0.00,,,0.00,595.000000,,2013-06-07 02:52:00,
2013-06-06 17:22:00,64.0,59.0,-100.00,WNW,287,9.0,19.0,85,0.00,,,0.00,221.000000,,2013-06-07 03:22:00,
2013-06-06 17:33:00,64.0,59.0,-100.00,WNW,287,9.0,19.0,85,0.00,,,0.00,221.000000,,2013-06-07 03:33:00,
2013-06-06 17:43:00,64.0,59.0,-100.00,WNW,287,9.0,19.0,85,0.00,,,0.00,221.000000,,2013-06-07 03:43:00,
2013-06-06 17:53:00,64.0,59.0,-100.00,WNW,287,9.0,19.0,85,0.00,,,0.00,221.000000,,2013-06-07 03:53:00,
2013-06-06 18:22:00,61.0,58.0,-100.00,West,277,8.0,14.0,91,0.00,,,0.00,60.000000,,2013-06-07 04:22:00,
2013-06-06 18:33:00,61.0,58.0,-100.00,West,277,8.0,14.0,91,0.00,,,0.00,60.000000,,2013-06-07 04:33:00,
2013-06-06 18:42:00,61.0,58.0,-100.00,West,277,8.0,14.0,91,0.00,,,0.00,60.000000,,2013-06-07 04:42:00,
2013-06-06 18:53:00,61.0,58.0,-100.00,West,277,8.0,14.0,91,0.00,,,0.00,60.000000,,2013-06-07 04:53:00,
2013-06-06 19:22:00,60.0,58.0,-100.00,West,278,7.0,10.0,93,0.00,,,0.00,7.000000,,2013-06-07 05:22:00,
2013-06-06 19:32:00,60.0,58.0,-100.00,West,278,7.0,10.0,93,0.00,,,0.00,7.000000,,2013-06-07 05:32:00,
2013-06-06 19:42:00,60.0,58.0,-100.00,West,278,7.0,10.0,93,0.00,,,0.00,7.000000,,2013-06-07 05:42:00,
2013-06-06 19:52:00,60.0,58.0,-100.00,West,278,7.0,10.0,93,0.00,,,0.00,7.000000,,2013-06-07 05:52:00,
2013-06-06 20:12:00,60.0,58.0,-100.00,WSW,246,3.0,10.0,94,0.00,,,0.00,0.000000,,2013-06-07 06:12:00,
2013-06-06 20:22:00,60.0,58.0,-100.00,WSW,246,3.0,10.0,94,0.00,,,0.00,0.000000,,2013-06-07 06:22:00,
2013-06-06 20:32:00,60.0,58.0,-100.00,WSW,246,3.0,10.0,94,0.00,,,0.00,0.000000,,2013-06-07 06:32:00,
2013-06-06 20:42:00,60.0,58.0,-100.00,WSW,246,3.0,10.0,94,0.00,,,0.00,0.000000,,2013-06-07 06:42:00,
2013-06-06 20:52:00,60.0,58.0,-100.00,WSW,246,3.0,10.0,94,0.00,,,0.00,0.000000,,2013-06-07 06:52:00,
2013-06-06 21:22:00,59.0,58.0,-100.00,NW,304,4.0,5.0,95,0.00,,,0.00,0.000000,,2013-06-07 07:22:00,
2013-06-06 21:32:00,59.0,58.0,-100.00,NW,304,4.0,5.0,95,0.00,,,0.00,0.000000,,2013-06-07 07:32:00,
2013-06-06 21:42:00,59.0,58.0,-100.00,NW,304,4.0,5.0,95,0.00,,,0.00,0.000000,,2013-06-07 07:42:00,
2013-06-06 21:52:00,59.0,58.0,-100.00,NW,304,4.0,5.0,95,0.00,,,0.00,0.000000,,2013-06-07 07:52:00,
2013-06-06 22:22:00,59.0,58.0,-100.00,NE,38,4.0,8.0,98,0.00,,,0.00,0.000000,,2013-06-07 08:22:00,
2013-06-06 22:32:00,59.0,58.0,-100.00,NE,38,4.0,8.0,98,0.00,,,0.00,0.000000,,2013-06-07 08:32:00,
2013-06-06 22:42:00,59.0,58.0,-100.00,NE,38,4.0,8.0,98,0.00,,,0.00,0.000000,,2013-06-07 08:42:00,
2013-06-06 22:52:00,59.0,58.0,-100.00,NE,38,4.0,8.0,98,0.00,,,0.00,0.000000,,2013-06-07 08:52:00,
2013-06-06 23:22:00,56.0,56.0,-100.00,SE,142,3.0,6.0,100,0.00,,,0.00,0.000000,,2013-06-07 09:22:00,
2013-06-06 23:32:00,56.0,56.0,-100.00,SE,142,3.0,6.0,100,0.00,,,0.00,0.000000,,2013-06-07 09:32:00,
2013-06-06 23:43:00,56.0,56.0,-100.00,SE,142,3.0,6.0,100,0.00,,,0.00,0.000000,,2013-06-07 09:43:00,
2013-06-06 23:53:00,56.0,56.0,-100.00,SE,142,3.0,6.0,100,0.00,,,0.00,0.000000,,2013-06-07 09:53:00,